Time;durP1;ratioP1;P1;durP2;ratioP2;P2;SDS_P1;SDS_P2;PMS_P1;PMS_P2;Temp;Humidity;BMP_temperature;BMP_pressure;BME280_temperature;BME280_humidity;BME280_pressure;Samples;Min_cycle;Max_cycle;Signal;HPM_P1;HPM_P2
2022/02/07 00:02:01;;;;;;;780.90;334.13;;;;;;;;;;4975240;28;20375;-76
2022/02/07 00:04:33;;;;;;;781.03;335.02;;;;;;;;;;4964598;28;20021;-76
2022/02/07 00:06:59;;;;;;;777.45;332.73;;;;;;;;;;4944267;28;20021;-76
2022/02/07 00:09:25;;;;;;;780.13;331.60;;;;;;;;;;4954716;28;20482;-76
2022/02/07 00:11:51;;;;;;;783.30;338.48;;;;;;;;;;4968053;28;20035;-76
2022/02/07 00:14:17;;;;;;;778.67;332.10;;;;;;;;;;4979474;28;20027;-73
2022/02/07 00:16:44;;;;;;;774.63;323.85;;;;;;;;;;4975999;28;20039;-74
2022/02/07 00:19:20;;;;;;;778.28;330.20;;;;;;;;;;4966576;28;20086;-74
2022/02/07 00:21:47;;;;;;;776.38;328.80;;;;;;;;;;4970969;28;20546;-75
2022/02/07 00:24:12;;;;;;;779.78;328.35;;;;;;;;;;4969694;28;20027;-74
2022/02/07 00:26:39;;;;;;;778.85;329.20;;;;;;;;;;4957355;28;20471;-75
2022/02/07 00:29:05;;;;;;;779.88;326.33;;;;;;;;;;4950484;28;20027;-75
2022/02/07 00:31:31;;;;;;;779.30;330.38;;;;;;;;;;4945343;28;20027;-75
2022/02/07 00:33:57;;;;;;;776.97;328.27;;;;;;;;;;4961348;28;20130;-74
2022/02/07 00:36:23;;;;;;;779.63;329.33;;;;;;;;;;4966277;28;20111;-75
2022/02/07 00:38:53;;;;;;;780.60;332.65;;;;;;;;;;4963549;28;20429;-75
2022/02/07 00:41:23;;;;;;;776.53;325.98;;;;;;;;;;4957225;28;20064;-74
2022/02/07 00:43:54;;;;;;;782.30;338.60;;;;;;;;;;4955343;28;20039;-75
2022/02/07 00:46:31;;;;;;;781.60;335.13;;;;;;;;;;4970747;28;20024;-75
2022/02/07 00:48:56;;;;;;;783.47;337.85;;;;;;;;;;4975123;28;20550;-75
2022/02/07 00:51:24;;;;;;;781.22;332.00;;;;;;;;;;4982186;28;20151;-75
2022/02/07 00:53:50;;;;;;;781.17;335.55;;;;;;;;;;4980082;28;20032;-75
2022/02/07 00:56:16;;;;;;;783.90;341.90;;;;;;;;;;4948354;28;20125;-75
2022/02/07 00:58:42;;;;;;;781.75;336.13;;;;;;;;;;4976511;28;20039;-74
2022/02/07 01:01:08;;;;;;;783.47;338.95;;;;;;;;;;4979237;28;20035;-74
2022/02/07 01:03:34;;;;;;;785.80;342.15;;;;;;;;;;4977999;28;20019;-74
2022/02/07 01:06:01;;;;;;;781.60;334.52;;;;;;;;;;4940520;28;21590;-75
2022/02/07 01:08:40;;;;;;;778.15;330.50;;;;;;;;;;4957239;28;20028;-74
2022/02/07 01:11:19;;;;;;;779.27;331.83;;;;;;;;;;4962753;28;20346;-74
2022/02/07 01:14:07;;;;;;;783.42;329.73;;;;;;;;;;4950671;28;22597;-75
2022/02/07 01:52:10;;;;;;;782.60;336.48;;;;;;;;;;4968701;28;20035;-75
2022/02/07 01:57:04;;;;;;;777.50;327.55;;;;;;;;;;4976223;28;20035;-75
2022/02/07 01:59:31;;;;;;;780.60;331.90;;;;;;;;;;4953881;28;20069;-75
2022/02/07 02:01:57;;;;;;;780.08;335.42;;;;;;;;;;4991188;28;20036;-74
2022/02/07 02:04:23;;;;;;;781.47;340.63;;;;;;;;;;4954814;28;20027;-76
2022/02/07 02:06:49;;;;;;;779.38;335.23;;;;;;;;;;4911003;28;1074994;-75
2022/02/07 02:09:15;;;;;;;781.00;338.58;;;;;;;;;;4958613;28;20119;-74
2022/02/07 02:11:42;;;;;;;780.60;342.30;;;;;;;;;;4970746;28;20039;-75
2022/02/07 02:33:30;;;;;;;777.58;327.55;;;;;;;;;;4968862;28;20108;-75
2022/02/07 02:36:26;;;;;;;778.83;326.35;;;;;;;;;;4946157;28;20035;-75
2022/02/07 02:45:21;;;;;;;779.53;331.83;;;;;;;;;;4961483;28;20085;-74
2022/02/07 02:46:34;;;;;;;781.13;333.70;;;;;;;;;;4956651;28;20080;-75
2022/02/07 02:49:02;;;;;;;780.92;335.02;;;;;;;;;;4951397;28;20028;-75
2022/02/07 02:51:28;;;;;;;780.28;333.80;;;;;;;;;;4989044;28;20030;-75
2022/02/07 02:53:54;;;;;;;780.53;337.48;;;;;;;;;;4980405;28;20114;-75
2022/02/07 02:56:21;;;;;;;781.55;340.02;;;;;;;;;;4974186;28;20074;-74
2022/02/07 02:58:47;;;;;;;781.45;339.42;;;;;;;;;;4947649;28;20548;-75
2022/02/07 03:01:13;;;;;;;779.30;339.52;;;;;;;;;;4968992;28;20386;-75
2022/02/07 03:03:39;;;;;;;783.67;346.63;;;;;;;;;;4976518;28;20039;-75
2022/02/07 03:06:04;;;;;;;782.55;341.95;;;;;;;;;;4998356;28;20033;-76
2022/02/07 03:08:30;;;;;;;784.45;344.10;;;;;;;;;;4951588;28;20126;-75
2022/02/07 03:11:03;;;;;;;783.08;344.15;;;;;;;;;;4976560;28;20442;-75
2022/02/07 03:18:41;;;;;;;782.90;342.25;;;;;;;;;;4969306;28;20157;-75
2022/02/07 03:21:07;;;;;;;779.90;339.77;;;;;;;;;;4965063;28;20064;-75
2022/02/07 03:23:33;;;;;;;778.92;335.98;;;;;;;;;;4947458;28;20065;-75
2022/02/07 03:25:59;;;;;;;783.35;344.35;;;;;;;;;;4964534;28;20077;-75
2022/02/07 03:28:26;;;;;;;794.90;347.13;;;;;;;;;;4963668;28;20443;-76
2022/02/07 03:30:52;;;;;;;785.50;352.33;;;;;;;;;;4972908;28;20028;-76
2022/02/07 03:33:18;;;;;;;782.42;347.70;;;;;;;;;;4982105;28;20472;-75
2022/02/07 03:35:44;;;;;;;790.25;359.73;;;;;;;;;;4946659;28;20038;-75
2022/02/07 03:38:10;;;;;;;787.65;357.75;;;;;;;;;;4976628;28;20121;-75
2022/02/07 03:40:37;;;;;;;785.03;352.77;;;;;;;;;;4977128;28;20085;-75
2022/02/07 03:43:04;;;;;;;783.15;351.08;;;;;;;;;;4977336;28;20031;-76
2022/02/07 03:45:30;;;;;;;786.05;354.77;;;;;;;;;;4976899;28;20404;-76
2022/02/07 03:47:56;;;;;;;790.05;368.33;;;;;;;;;;4950566;28;20043;-75
2022/02/07 03:50:22;;;;;;;793.53;371.05;;;;;;;;;;4968913;28;20082;-76
2022/02/07 03:52:50;;;;;;;787.72;363.20;;;;;;;;;;4962803;28;20029;-76
2022/02/07 03:55:16;;;;;;;789.28;367.42;;;;;;;;;;4962152;28;20029;-76
2022/02/07 03:57:42;;;;;;;784.55;355.77;;;;;;;;;;4962933;28;20448;-75
2022/02/07 04:00:10;;;;;;;786.50;355.25;;;;;;;;;;4959382;28;20031;-75
2022/02/07 04:02:40;;;;;;;788.53;364.15;;;;;;;;;;4953483;28;20058;-74
2022/02/07 04:07:42;;;;;;;791.63;365.42;;;;;;;;;;4948573;28;20308;-74
2022/02/07 04:10:08;;;;;;;789.20;369.83;;;;;;;;;;4969746;28;20033;-75
2022/02/07 04:12:34;;;;;;;789.38;366.70;;;;;;;;;;4957447;28;20035;-76
2022/02/07 04:15:01;;;;;;;787.40;358.70;;;;;;;;;;4964614;28;21468;-76
2022/02/07 04:17:29;;;;;;;788.78;365.60;;;;;;;;;;4941866;28;20463;-75
2022/02/07 04:19:59;;;;;;;789.45;368.23;;;;;;;;;;4959709;28;20137;-75
2022/02/07 04:22:28;;;;;;;788.22;362.42;;;;;;;;;;4939084;28;20046;-74
2022/02/07 04:24:54;;;;;;;787.75;367.10;;;;;;;;;;4958557;28;20024;-76
2022/02/07 04:27:21;;;;;;;788.47;363.83;;;;;;;;;;4968017;28;20027;-76
2022/02/07 04:29:47;;;;;;;789.13;368.30;;;;;;;;;;4959394;28;20042;-75
2022/02/07 04:32:13;;;;;;;792.30;372.23;;;;;;;;;;4962506;28;20023;-75
2022/02/07 04:34:42;;;;;;;792.67;372.92;;;;;;;;;;4976373;28;20474;-76
2022/02/07 04:37:08;;;;;;;791.72;374.05;;;;;;;;;;4949810;28;20038;-76
2022/02/07 04:39:34;;;;;;;791.50;367.95;;;;;;;;;;4953423;28;20036;-76
2022/02/07 04:42:04;;;;;;;792.75;370.58;;;;;;;;;;4989266;28;20038;-75
2022/02/07 04:44:37;;;;;;;;;;;;;;;;;;4960476;28;20107;-76
2022/02/07 04:47:16;;;;;;;783.65;345.92;;;;;;;;;;4957192;28;19918;-76
2022/02/07 04:50:01;;;;;;;784.97;356.13;;;;;;;;;;4968547;28;20032;-76
2022/02/07 04:55:33;;;;;;;791.30;368.55;;;;;;;;;;4947266;28;20046;-75
2022/02/07 04:58:05;;;;;;;788.67;364.80;;;;;;;;;;4949751;28;20118;-76
2022/02/07 05:01:07;;;;;;;788.97;367.55;;;;;;;;;;4969402;28;20357;-75
2022/02/07 05:03:24;;;;;;;788.50;360.67;;;;;;;;;;4956987;28;20045;-75
2022/02/07 05:16:21;;;;;;;787.22;362.95;;;;;;;;;;4962075;28;20029;-75
2022/02/07 05:18:53;;;;;;;787.20;360.42;;;;;;;;;;4952156;28;20031;-75
2022/02/07 05:21:19;;;;;;;786.75;357.80;;;;;;;;;;4967421;28;20161;-75
2022/02/07 05:23:45;;;;;;;787.80;361.48;;;;;;;;;;4951515;28;20542;-75
2022/02/07 05:26:11;;;;;;;783.10;347.90;;;;;;;;;;4971393;28;20232;-74
2022/02/07 05:28:37;;;;;;;783.75;353.10;;;;;;;;;;4951015;28;20025;-75
2022/02/07 05:31:04;;;;;;;786.95;357.10;;;;;;;;;;4961902;28;20031;-75
2022/02/07 05:33:30;;;;;;;783.38;350.15;;;;;;;;;;4954699;28;20036;-76
2022/02/07 05:35:55;;;;;;;784.45;348.85;;;;;;;;;;4943347;28;20363;-76
2022/02/07 05:38:22;;;;;;;779.83;342.05;;;;;;;;;;4955536;28;20031;-76
2022/02/07 05:41:00;;;;;;;782.83;339.13;;;;;;;;;;4967104;28;20029;-75
2022/02/07 05:43:26;;;;;;;778.95;334.70;;;;;;;;;;4949865;28;20027;-76
2022/02/07 05:45:53;;;;;;;782.10;342.85;;;;;;;;;;4957327;28;20392;-76
2022/02/07 05:48:18;;;;;;;782.70;344.08;;;;;;;;;;4983846;28;20352;-75
2022/02/07 05:50:45;;;;;;;782.17;341.35;;;;;;;;;;4978938;28;20093;-75
2022/02/07 05:53:10;;;;;;;780.33;336.60;;;;;;;;;;5000256;28;20143;-77
2022/02/07 05:55:36;;;;;;;782.83;341.13;;;;;;;;;;4952611;28;20111;-76
2022/02/07 05:58:02;;;;;;;783.70;344.00;;;;;;;;;;4964656;28;20438;-76
2022/02/07 06:00:32;;;;;;;781.47;343.42;;;;;;;;;;4978696;28;20063;-75
2022/02/07 06:02:59;;;;;;;781.53;342.15;;;;;;;;;;5002360;28;20032;-75
2022/02/07 06:05:26;;;;;;;783.88;346.25;;;;;;;;;;4977926;28;20588;-76
2022/02/07 06:07:52;;;;;;;785.90;346.65;;;;;;;;;;4964094;28;20053;-76
2022/02/07 06:10:18;;;;;;;782.95;344.63;;;;;;;;;;4955809;28;20501;-76
2022/02/07 06:12:46;;;;;;;781.10;351.17;;;;;;;;;;4976937;28;20395;-76
2022/02/07 06:15:12;;;;;;;783.35;351.63;;;;;;;;;;4952263;28;20106;-75
2022/02/07 06:17:39;;;;;;;779.25;344.45;;;;;;;;;;4961062;28;20191;-76
2022/02/07 06:20:05;;;;;;;779.63;346.33;;;;;;;;;;4977244;28;20082;-75
2022/02/07 06:22:31;;;;;;;783.45;350.73;;;;;;;;;;4952188;28;20383;-75
2022/02/07 06:24:57;;;;;;;782.55;350.58;;;;;;;;;;4960301;28;20027;-76
2022/02/07 06:27:24;;;;;;;780.80;341.15;;;;;;;;;;4974107;28;20127;-75
2022/02/07 06:29:50;;;;;;;781.03;348.13;;;;;;;;;;4981258;28;20069;-75
2022/02/07 06:32:16;;;;;;;782.38;350.27;;;;;;;;;;4950418;28;20144;-76
2022/02/07 06:34:42;;;;;;;784.33;365.73;;;;;;;;;;4955527;28;20044;-75
2022/02/07 06:37:08;;;;;;;786.80;359.15;;;;;;;;;;4947908;28;20031;-76
2022/02/07 06:39:34;;;;;;;782.92;353.60;;;;;;;;;;4979943;28;20108;-75
2022/02/07 06:42:00;;;;;;;785.70;362.42;;;;;;;;;;4943432;28;20031;-76
2022/02/07 06:44:27;;;;;;;783.67;356.48;;;;;;;;;;4978472;28;20099;-76
2022/02/07 06:46:53;;;;;;;784.15;354.17;;;;;;;;;;4958634;28;20031;-76
2022/02/07 06:49:19;;;;;;;785.40;363.00;;;;;;;;;;4965791;28;20582;-75
2022/02/07 06:51:45;;;;;;;781.78;351.88;;;;;;;;;;4976768;28;20045;-76
2022/02/07 06:54:11;;;;;;;785.65;357.52;;;;;;;;;;4981021;28;20530;-75
2022/02/07 06:56:37;;;;;;;783.58;353.20;;;;;;;;;;4971205;28;20327;-76
2022/02/07 06:59:03;;;;;;;783.08;354.48;;;;;;;;;;4964416;28;20476;-75
2022/02/07 07:01:30;;;;;;;785.58;360.92;;;;;;;;;;4957187;28;20430;-76
2022/02/07 07:03:56;;;;;;;784.80;355.95;;;;;;;;;;4970354;28;20031;-76
2022/02/07 07:06:22;;;;;;;785.40;359.10;;;;;;;;;;4969602;28;20435;-75
2022/02/07 07:08:52;;;;;;;781.25;348.83;;;;;;;;;;4982686;28;20118;-76
2022/02/07 07:11:22;;;;;;;784.05;349.52;;;;;;;;;;4954074;28;20506;-76
2022/02/07 07:14:02;;;;;;;784.28;350.08;;;;;;;;;;4948927;28;20414;-76
2022/02/07 07:18:54;;;;;;;790.90;330.73;;;;;;;;;;4961598;28;19917;-75
2022/02/07 07:21:23;;;;;;;780.08;335.42;;;;;;;;;;4981152;28;20465;-75
2022/02/07 07:23:49;;;;;;;778.85;342.88;;;;;;;;;;4983679;28;21134;-75
2022/02/07 07:26:15;;;;;;;779.08;343.33;;;;;;;;;;4959996;28;20104;-75
2022/02/07 07:28:42;;;;;;;779.78;347.60;;;;;;;;;;4982140;28;20084;-75
2022/02/07 07:31:11;;;;;;;774.47;333.63;;;;;;;;;;4972301;28;20037;-75
2022/02/07 07:33:38;;;;;;;782.25;346.75;;;;;;;;;;4978823;28;20032;-76
2022/02/07 07:36:04;;;;;;;777.78;340.08;;;;;;;;;;5001513;28;20089;-75
2022/02/07 07:38:30;;;;;;;779.72;343.17;;;;;;;;;;4965179;28;20522;-76
2022/02/07 07:40:56;;;;;;;785.28;357.70;;;;;;;;;;4944132;28;20035;-76
2022/02/07 07:43:23;;;;;;;782.20;352.05;;;;;;;;;;4955013;28;20084;-75
2022/02/07 07:45:58;;;;;;;783.78;355.65;;;;;;;;;;4981109;28;20041;-76
2022/02/07 07:48:26;;;;;;;784.50;354.55;;;;;;;;;;4973916;28;20062;-76
2022/02/07 07:51:04;;;;;;;783.88;360.67;;;;;;;;;;4977352;28;20093;-75
2022/02/07 08:01:53;;;;;;;790.42;387.25;;;;;;;;;;4945615;28;20506;-76
2022/02/07 08:04:25;;;;;;;795.13;398.15;;;;;;;;;;4955379;28;20085;-75
2022/02/07 08:07:00;;;;;;;801.13;415.98;;;;;;;;;;4965936;28;20497;-76
2022/02/07 08:12:01;;;;;;;806.00;431.45;;;;;;;;;;4984472;28;20025;-76
2022/02/07 08:14:34;;;;;;;812.42;453.88;;;;;;;;;;4975451;28;20473;-75
2022/02/07 08:17:00;;;;;;;817.55;466.75;;;;;;;;;;4944664;28;20033;-76
2022/02/07 08:19:28;;;;;;;816.92;467.90;;;;;;;;;;4956551;28;20483;-76
2022/02/07 08:21:57;;;;;;;825.75;490.48;;;;;;;;;;4948365;28;20043;-76
2022/02/07 08:24:23;;;;;;;614.70;373.27;;;;;;;;;;4956111;28;20106;-75
2022/02/07 08:26:52;;;;;;;826.30;499.60;;;;;;;;;;4968873;28;20519;-76
2022/02/07 08:29:18;;;;;;;831.42;523.75;;;;;;;;;;4971012;28;20023;-76
2022/02/07 08:31:44;;;;;;;833.10;526.20;;;;;;;;;;4992827;28;20046;-75
2022/02/07 08:34:10;;;;;;;835.08;522.80;;;;;;;;;;4961877;28;20025;-76
2022/02/07 08:36:36;;;;;;;841.50;543.72;;;;;;;;;;4970935;28;20025;-76
2022/02/07 08:39:02;;;;;;;836.13;536.47;;;;;;;;;;4979880;28;20848;-75
2022/02/07 08:41:29;;;;;;;840.53;553.92;;;;;;;;;;4993201;28;20068;-75
2022/02/07 08:43:55;;;;;;;838.17;547.10;;;;;;;;;;4962440;28;20043;-75
2022/02/07 08:46:21;;;;;;;843.80;560.50;;;;;;;;;;4967353;28;20027;-76
2022/02/07 08:48:47;;;;;;;841.40;557.13;;;;;;;;;;4948843;28;20031;-74
2022/02/07 08:51:15;;;;;;;850.67;583.78;;;;;;;;;;5001255;28;20030;-75
2022/02/07 08:53:43;;;;;;;854.25;592.20;;;;;;;;;;4969842;28;20062;-75
2022/02/07 08:56:10;;;;;;;838.72;547.42;;;;;;;;;;4972860;28;20071;-75
2022/02/07 08:58:44;;;;;;;848.45;552.08;;;;;;;;;;4958138;28;20430;-75
2022/02/07 09:06:16;;;;;;;830.17;511.40;;;;;;;;;;4966028;28;20669;-75
2022/02/07 09:11:09;;;;;;;833.08;515.75;;;;;;;;;;4982502;28;20124;-74
2022/02/07 09:13:38;;;;;;;837.83;529.20;;;;;;;;;;4977948;28;20363;-75
2022/02/07 09:18:49;;;;;;;837.47;532.58;;;;;;;;;;4960749;28;20039;-75
2022/02/07 09:21:15;;;;;;;837.17;536.10;;;;;;;;;;4950098;28;20035;-75
2022/02/07 09:23:44;;;;;;;841.28;548.33;;;;;;;;;;4947058;28;20035;-74
2022/02/07 09:26:10;;;;;;;843.72;553.05;;;;;;;;;;4949071;28;20039;-75
2022/02/07 09:28:36;;;;;;;841.38;541.17;;;;;;;;;;4979259;28;20019;-76
2022/02/07 09:31:03;;;;;;;836.42;541.75;;;;;;;;;;4951894;28;20019;-75
2022/02/07 09:33:29;;;;;;;840.15;545.58;;;;;;;;;;4954426;28;20042;-75
2022/02/07 09:35:55;;;;;;;835.78;532.30;;;;;;;;;;4966712;28;20497;-74
2022/02/07 09:38:21;;;;;;;835.85;529.15;;;;;;;;;;4982493;28;20112;-75
2022/02/07 09:40:51;;;;;;;835.42;522.90;;;;;;;;;;4961237;28;20477;-75
2022/02/07 09:43:18;;;;;;;831.10;512.22;;;;;;;;;;4976808;28;20073;-74
2022/02/07 09:45:45;;;;;;;831.22;514.35;;;;;;;;;;4972682;28;20039;-75
2022/02/07 09:48:14;;;;;;;835.10;511.40;;;;;;;;;;4962013;28;20483;-74
2022/02/07 09:50:40;;;;;;;830.40;500.88;;;;;;;;;;4954403;28;20024;-77
2022/02/07 09:53:06;;;;;;;826.53;495.85;;;;;;;;;;4968923;28;20036;-75
2022/02/07 09:55:33;;;;;;;828.58;502.65;;;;;;;;;;4948692;28;20315;-77
2022/02/07 09:58:00;;;;;;;822.10;479.67;;;;;;;;;;4946570;28;20027;-77
2022/02/07 10:00:35;;;;;;;826.42;481.85;;;;;;;;;;4964373;28;20039;-77
2022/02/07 10:03:19;;;;;;;821.65;473.13;;;;;;;;;;4951737;28;20027;-77
2022/02/07 10:13:43;;;;;;;817.00;462.65;;;;;;;;;;4947904;28;20035;-76
2022/02/07 10:22:06;;;;;;;821.88;473.60;;;;;;;;;;4968654;28;20434;-76
2022/02/07 10:41:55;;;;;;;835.85;514.17;;;;;;;;;;4962791;28;20379;-77
2022/02/07 10:44:34;;;;;;;823.05;486.80;;;;;;;;;;4942011;28;20470;-77
2022/02/07 10:47:08;;;;;;;825.80;491.08;;;;;;;;;;4946139;28;20530;-76
2022/02/07 10:49:35;;;;;;;826.65;490.13;;;;;;;;;;4944801;28;20438;-76
2022/02/07 10:52:01;;;;;;;833.03;517.67;;;;;;;;;;4945519;28;20027;-77
2022/02/07 10:54:27;;;;;;;836.67;536.72;;;;;;;;;;4950561;28;20478;-76
2022/02/07 10:56:54;;;;;;;848.78;572.40;;;;;;;;;;4945652;28;20042;-77
2022/02/07 10:59:22;;;;;;;848.00;577.25;;;;;;;;;;4947298;28;20122;-76
2022/02/07 11:04:22;;;;;;;842.63;558.75;;;;;;;;;;4970494;28;20120;-76
2022/02/07 11:06:51;;;;;;;840.20;549.40;;;;;;;;;;4952929;28;20051;-78
2022/02/07 11:09:24;;;;;;;831.45;513.83;;;;;;;;;;4952245;28;20483;-76
2022/02/07 11:12:19;;;;;;;834.67;518.90;;;;;;;;;;4953022;28;20031;-77
2022/02/07 11:14:59;;;;;;;830.22;509.95;;;;;;;;;;4984355;28;20035;-78
2022/02/07 11:17:53;;;;;;;833.03;516.97;;;;;;;;;;4944120;28;20122;-77
2022/02/07 11:20:33;;;;;;;830.45;507.02;;;;;;;;;;4957260;28;20811;-77
2022/02/07 11:23:15;;;;;;;829.75;506.63;;;;;;;;;;4950216;28;20032;-77
2022/02/07 11:25:51;;;;;;;829.42;504.95;;;;;;;;;;4959215;28;20147;-77
2022/02/07 11:28:24;;;;;;;825.90;496.15;;;;;;;;;;4958627;28;20083;-77
2022/02/07 11:30:50;;;;;;;823.42;488.10;;;;;;;;;;4968905;28;20027;-77
2022/02/07 11:33:30;;;;;;;826.35;494.73;;;;;;;;;;4956562;28;20120;-78
2022/02/07 11:35:56;;;;;;;818.03;472.70;;;;;;;;;;4953398;28;20733;-76
2022/02/07 11:38:22;;;;;;;822.88;479.27;;;;;;;;;;4962222;28;20035;-77
2022/02/07 11:41:05;;;;;;;821.67;471.60;;;;;;;;;;4981488;28;20031;-77
2022/02/07 11:43:34;;;;;;;819.03;465.75;;;;;;;;;;4970468;28;20505;-76
2022/02/07 11:46:08;;;;;;;825.22;478.33;;;;;;;;;;4945760;28;20030;-77
2022/02/07 11:48:43;;;;;;;819.20;465.92;;;;;;;;;;4956444;28;20036;-76
2022/02/07 11:51:13;;;;;;;816.88;457.27;;;;;;;;;;4946382;28;20483;-78
2022/02/07 11:53:48;;;;;;;819.15;455.17;;;;;;;;;;4966027;28;20383;-78
2022/02/07 11:56:20;;;;;;;812.33;445.67;;;;;;;;;;4964562;28;20617;-78
2022/02/07 11:58:51;;;;;;;812.80;446.08;;;;;;;;;;4995849;28;20092;-78
2022/02/07 12:01:24;;;;;;;812.20;443.25;;;;;;;;;;4975315;28;20033;-78
2022/02/07 12:03:53;;;;;;;811.42;440.20;;;;;;;;;;4954160;28;20046;-78
2022/02/07 12:06:24;;;;;;;814.95;443.08;;;;;;;;;;4944498;28;20059;-77
2022/02/07 12:08:50;;;;;;;;;;;;;;;;;;4945084;28;20044;-77
2022/02/07 12:11:16;;;;;;;808.55;423.10;;;;;;;;;;4974619;28;20282;-78
2022/02/07 12:13:43;;;;;;;811.40;434.63;;;;;;;;;;4987900;28;20031;-76
2022/02/07 12:16:22;;;;;;;816.05;445.98;;;;;;;;;;4972904;28;20461;-78
2022/02/07 12:19:00;;;;;;;810.97;436.48;;;;;;;;;;4942915;28;20035;-77
2022/02/07 12:21:28;;;;;;;811.38;437.70;;;;;;;;;;4948052;28;20035;-78
2022/02/07 12:23:56;;;;;;;816.00;447.55;;;;;;;;;;4944281;28;20027;-78
2022/02/07 12:26:23;;;;;;;814.67;447.35;;;;;;;;;;4968652;28;20073;-78
2022/02/07 12:28:56;;;;;;;813.45;443.42;;;;;;;;;;4962570;28;20121;-79
2022/02/07 12:31:23;;;;;;;813.35;444.30;;;;;;;;;;4960784;28;20063;-77
2022/02/07 12:33:57;;;;;;;816.45;449.58;;;;;;;;;;4961504;28;20540;-79
2022/02/07 12:36:30;;;;;;;816.13;445.30;;;;;;;;;;4959187;28;20029;-78
2022/02/07 12:38:57;;;;;;;814.40;443.33;;;;;;;;;;4968821;28;20031;-78
2022/02/07 12:41:29;;;;;;;818.20;455.77;;;;;;;;;;4982197;28;20027;-78
2022/02/07 12:43:56;;;;;;;818.63;454.77;;;;;;;;;;4972270;28;20035;-79
2022/02/07 12:46:24;;;;;;;815.55;444.85;;;;;;;;;;4975499;28;20108;-77
2022/02/07 12:48:58;;;;;;;816.25;453.15;;;;;;;;;;4984784;28;20017;-79
2022/02/07 12:51:46;;;;;;;815.10;446.98;;;;;;;;;;4951262;28;20035;-78
2022/02/07 12:54:14;;;;;;;810.90;433.88;;;;;;;;;;4942343;28;20066;-79
2022/02/07 12:56:40;;;;;;;814.00;444.55;;;;;;;;;;4978835;28;20043;-77
2022/02/07 12:59:07;;;;;;;813.85;442.95;;;;;;;;;;4977902;28;20038;-77
2022/02/07 13:01:37;;;;;;;813.35;441.60;;;;;;;;;;4975010;28;20038;-78
2022/02/07 13:04:07;;;;;;;812.45;435.27;;;;;;;;;;4975875;28;20063;-80
2022/02/07 13:06:35;;;;;;;813.05;436.65;;;;;;;;;;4965049;28;20048;-79
2022/02/07 13:09:04;;;;;;;811.90;438.23;;;;;;;;;;4983520;28;20027;-78
2022/02/07 13:11:33;;;;;;;813.40;442.27;;;;;;;;;;4984359;28;20081;-77
2022/02/07 13:14:00;;;;;;;812.50;436.23;;;;;;;;;;4981653;28;20031;-78
2022/02/07 13:16:30;;;;;;;811.05;434.88;;;;;;;;;;4950319;28;20348;-78
2022/02/07 13:19:07;;;;;;;818.30;449.13;;;;;;;;;;4949824;28;20099;-77
2022/02/07 13:21:39;;;;;;;813.97;442.50;;;;;;;;;;4952207;28;20085;-79
2022/02/07 13:24:13;;;;;;;813.70;439.65;;;;;;;;;;4955730;28;20213;-78
2022/02/07 13:26:39;;;;;;;812.30;436.08;;;;;;;;;;4987011;28;20023;-78
2022/02/07 13:29:05;;;;;;;814.05;444.08;;;;;;;;;;4979742;28;20489;-78
2022/02/07 13:31:31;;;;;;;815.67;442.15;;;;;;;;;;4964919;28;20056;-78
2022/02/07 13:34:00;;;;;;;819.38;448.17;;;;;;;;;;4969245;28;20337;-79
2022/02/07 13:36:42;;;;;;;812.47;438.42;;;;;;;;;;4963080;28;20421;-77
2022/02/07 13:39:08;;;;;;;810.97;431.92;;;;;;;;;;4996234;28;20119;-78
2022/02/07 13:41:35;;;;;;;815.67;443.10;;;;;;;;;;4967782;28;20138;-79
2022/02/07 13:44:01;;;;;;;811.00;431.92;;;;;;;;;;4954137;28;20480;-78
2022/02/07 13:46:33;;;;;;;812.78;437.83;;;;;;;;;;4962204;28;20035;-79
2022/02/07 13:49:00;;;;;;;816.38;444.80;;;;;;;;;;4970148;28;20034;-79
2022/02/07 13:51:27;;;;;;;813.95;443.27;;;;;;;;;;4974001;28;20527;-78
2022/02/07 13:53:53;;;;;;;818.17;458.42;;;;;;;;;;4981561;28;20111;-79
2022/02/07 13:56:28;;;;;;;817.63;457.83;;;;;;;;;;4961736;28;20110;-79
2022/02/07 13:58:54;;;;;;;815.55;452.65;;;;;;;;;;4963602;28;20062;-78
2022/02/07 14:01:23;;;;;;;816.63;453.13;;;;;;;;;;4955787;28;20554;-78
2022/02/07 14:03:57;;;;;;;815.07;450.23;;;;;;;;;;4956580;28;20057;-79
2022/02/07 14:06:25;;;;;;;817.00;450.50;;;;;;;;;;4946409;28;20067;-79
2022/02/07 14:08:54;;;;;;;813.47;439.23;;;;;;;;;;4975839;28;20027;-79
2022/02/07 14:11:24;;;;;;;810.33;429.58;;;;;;;;;;4994769;28;20062;-77
2022/02/07 14:13:50;;;;;;;813.43;434.23;;;;;;;;;;4982103;28;20057;-78
2022/02/07 14:16:23;;;;;;;813.28;437.50;;;;;;;;;;4967182;28;20321;-78
2022/02/07 14:18:51;;;;;;;815.20;440.48;;;;;;;;;;4957808;28;20039;-78
2022/02/07 14:21:18;;;;;;;812.10;433.52;;;;;;;;;;4970240;28;20259;-79
2022/02/07 14:23:46;;;;;;;815.80;443.95;;;;;;;;;;4967031;28;20031;-79
2022/02/07 14:26:16;;;;;;;814.05;442.23;;;;;;;;;;4979094;28;20330;-76
2022/02/07 14:28:43;;;;;;;816.33;447.83;;;;;;;;;;4973414;28;20035;-79
2022/02/07 14:31:11;;;;;;;815.70;445.90;;;;;;;;;;4961238;28;20062;-79
2022/02/07 14:33:37;;;;;;;812.50;440.33;;;;;;;;;;4962930;28;20027;-79
2022/02/07 14:36:04;;;;;;;809.05;430.45;;;;;;;;;;4967619;28;20035;-78
2022/02/07 14:38:29;;;;;;;808.25;431.25;;;;;;;;;;4975116;28;20483;-78
2022/02/07 14:40:56;;;;;;;809.63;422.70;;;;;;;;;;4990398;28;20029;-79
2022/02/07 14:43:28;;;;;;;813.05;432.80;;;;;;;;;;4959858;28;20028;-78
2022/02/07 14:46:22;;;;;;;807.67;426.67;;;;;;;;;;4963969;28;20425;-78
2022/02/07 14:48:41;;;;;;;807.20;418.30;;;;;;;;;;4942217;29;20088;-79
2022/02/07 14:51:07;;;;;;;808.58;420.35;;;;;;;;;;4982950;28;20129;-79
2022/02/07 14:53:34;;;;;;;807.60;417.52;;;;;;;;;;4945288;28;20177;-79
2022/02/07 14:56:00;;;;;;;807.35;416.42;;;;;;;;;;4958994;28;20038;-78
2022/02/07 14:58:26;;;;;;;808.78;424.52;;;;;;;;;;4952712;28;20031;-79
2022/02/07 15:00:53;;;;;;;809.80;429.33;;;;;;;;;;4966751;28;20406;-78
2022/02/07 15:03:20;;;;;;;819.72;437.95;;;;;;;;;;4972859;28;20499;-78
2022/02/07 15:05:47;;;;;;;810.63;431.67;;;;;;;;;;4972493;28;20097;-79
2022/02/07 15:08:13;;;;;;;812.63;433.60;;;;;;;;;;4980312;28;20477;-78
2022/02/07 15:10:39;;;;;;;807.72;427.33;;;;;;;;;;4956619;28;20120;-77
2022/02/07 15:13:09;;;;;;;809.28;430.65;;;;;;;;;;4954619;28;20032;-80
2022/02/07 15:15:38;;;;;;;808.60;420.50;;;;;;;;;;4987087;28;20035;-78
2022/02/07 15:18:07;;;;;;;809.28;422.08;;;;;;;;;;4975608;28;20130;-79
2022/02/07 15:20:33;;;;;;;807.95;417.40;;;;;;;;;;4976422;28;20031;-77
2022/02/07 15:22:59;;;;;;;810.88;428.10;;;;;;;;;;4972756;28;20326;-78
2022/02/07 15:25:30;;;;;;;811.78;427.15;;;;;;;;;;4952173;28;20339;-78
2022/02/07 15:27:57;;;;;;;816.83;429.10;;;;;;;;;;4971110;28;20416;-78
2022/02/07 15:30:25;;;;;;;808.80;423.05;;;;;;;;;;4971556;28;20020;-78
2022/02/07 15:32:52;;;;;;;819.05;414.73;;;;;;;;;;4968866;28;20035;-78
2022/02/07 15:35:19;;;;;;;808.17;414.38;;;;;;;;;;4965739;28;20452;-79
2022/02/07 15:37:46;;;;;;;807.55;418.17;;;;;;;;;;4961480;28;20107;-78
2022/02/07 15:40:12;;;;;;;807.35;418.55;;;;;;;;;;4959254;28;20039;-78
2022/02/07 15:42:39;;;;;;;806.88;414.92;;;;;;;;;;4994348;28;20373;-79
2022/02/07 15:45:05;;;;;;;809.65;414.20;;;;;;;;;;4977245;28;20110;-77
2022/02/07 15:47:38;;;;;;;809.03;420.25;;;;;;;;;;4977192;28;20039;-79
2022/02/07 15:50:06;;;;;;;806.60;412.85;;;;;;;;;;4970126;28;20043;-78
2022/02/07 15:52:32;;;;;;;808.72;420.38;;;;;;;;;;4952846;28;20223;-78
2022/02/07 15:54:59;;;;;;;809.08;417.17;;;;;;;;;;4965643;28;20035;-78
2022/02/07 15:57:26;;;;;;;811.17;424.33;;;;;;;;;;4954604;28;20118;-78
2022/02/07 15:59:52;;;;;;;810.65;421.42;;;;;;;;;;4991082;28;20042;-78
2022/02/07 16:02:18;;;;;;;807.85;416.10;;;;;;;;;;4966426;28;20505;-77
2022/02/07 16:04:44;;;;;;;806.20;413.20;;;;;;;;;;4976605;28;20023;-77
2022/02/07 16:07:11;;;;;;;807.67;414.92;;;;;;;;;;4964565;28;20019;-78
2022/02/07 16:09:38;;;;;;;807.28;411.05;;;;;;;;;;4960618;28;20035;-77
2022/02/07 16:12:10;;;;;;;806.67;413.67;;;;;;;;;;4958067;28;20025;-78
2022/02/07 16:14:38;;;;;;;806.05;405.55;;;;;;;;;;4964045;28;20051;-78
2022/02/07 16:17:04;;;;;;;811.58;419.17;;;;;;;;;;4969186;28;20130;-79
2022/02/07 16:19:30;;;;;;;804.35;408.55;;;;;;;;;;4977950;28;20109;-79
2022/02/07 16:21:56;;;;;;;807.00;410.83;;;;;;;;;;4961836;28;20126;-79
2022/02/07 16:24:23;;;;;;;805.58;404.67;;;;;;;;;;4949069;28;20662;-78